createdAt,value
2022-09-12T00:01:14.252Z,62.32
2022-09-12T00:03:43.090Z,62.72
2022-09-12T00:06:13.850Z,62.56
2022-09-12T00:08:44.510Z,62.49
2022-09-12T00:11:13.784Z,62.92
2022-09-12T00:13:43.173Z,62.57
2022-09-12T00:16:18.750Z,62.56
2022-09-12T00:18:47.768Z,62.90
2022-09-12T00:21:16.627Z,62.63
2022-09-12T00:23:46.859Z,63.40
2022-09-12T00:26:15.291Z,63.29
2022-09-12T00:28:43.534Z,63.68
2022-09-12T00:31:14.371Z,63.45
2022-09-12T00:33:42.968Z,62.87
2022-09-12T00:36:14.852Z,62.55
2022-09-12T00:38:43.094Z,62.51
2022-09-12T00:41:18.254Z,62.66
2022-09-12T00:43:47.853Z,62.78
2022-09-12T00:46:26.195Z,62.73
2022-09-12T00:48:58.055Z,63.56
2022-09-12T00:51:26.880Z,63.32
2022-09-12T00:53:56.416Z,63.66
2022-09-12T00:56:26.408Z,63.09
2022-09-12T00:58:58.896Z,62.92
2022-09-12T01:01:31.738Z,63.20
2022-09-12T01:04:00.972Z,63.34
2022-09-12T01:06:34.134Z,63.07
2022-09-12T01:09:04.147Z,62.43
2022-09-12T01:11:37.033Z,63.22
2022-09-12T01:14:07.552Z,63.36
2022-09-12T01:16:37.814Z,63.50
2022-09-12T01:19:23.492Z,63.49
2022-09-12T01:22:03.178Z,62.62
2022-09-12T01:24:44.613Z,62.61
2022-09-12T01:27:41.407Z,62.52
2022-09-12T01:30:48.118Z,62.73
2022-09-12T01:33:32.802Z,62.37
2022-09-12T01:36:27.067Z,62.91
2022-09-12T01:39:01.456Z,62.98
2022-09-12T01:41:35.378Z,62.84
2022-09-12T01:44:12.994Z,63.45
2022-09-12T01:46:46.611Z,62.94
2022-09-12T01:49:21.519Z,63.42
2022-09-12T01:51:57.824Z,63.71
2022-09-12T01:54:31.830Z,63.78
2022-09-12T01:57:05.174Z,63.15
2022-09-12T01:59:36.935Z,63.75
2022-09-12T02:02:09.942Z,62.71
2022-09-12T02:04:48.743Z,62.66
2022-09-12T02:07:21.398Z,62.84
2022-09-12T02:09:55.614Z,62.63
2022-09-12T02:12:30.816Z,62.89
2022-09-12T02:15:03.370Z,63.37
2022-09-12T02:17:38.957Z,63.64
2022-09-12T02:20:26.008Z,62.86
2022-09-12T02:23:08.281Z,63.04
2022-09-12T02:25:41.395Z,62.44
2022-09-12T02:28:13.589Z,62.86
2022-09-12T02:30:46.753Z,62.84
2022-09-12T02:33:21.835Z,62.58
2022-09-12T02:35:58.410Z,62.41
2022-09-12T02:38:31.992Z,63.38
2022-09-12T02:41:00.102Z,62.64
2022-09-12T02:43:28.118Z,62.59
2022-09-12T02:45:56.267Z,62.21
2022-09-12T02:48:29.132Z,62.45
2022-09-12T02:50:58.704Z,62.36
2022-09-12T02:53:27.441Z,62.30
2022-09-12T02:55:55.818Z,62.65
2022-09-12T02:58:30.672Z,62.47
2022-09-12T03:01:06.632Z,62.90
2022-09-12T03:03:55.268Z,62.89
2022-09-12T03:06:32.719Z,62.52
2022-09-12T03:09:09.940Z,63.42
2022-09-12T03:11:52.093Z,63.63
2022-09-12T03:14:34.069Z,62.73
2022-09-12T03:17:11.204Z,62.96
2022-09-12T03:19:52.261Z,62.90
2022-09-12T03:22:29.806Z,62.07
2022-09-12T03:25:06.792Z,62.45
2022-09-12T03:27:37.380Z,62.23
2022-09-12T03:30:07.026Z,62.40
2022-09-12T03:32:42.729Z,61.97
2022-09-12T03:35:11.905Z,62.77
2022-09-12T03:37:41.745Z,63.11
2022-09-12T03:40:11.824Z,63.01
2022-09-12T03:42:40.114Z,63.11
2022-09-12T03:45:10.013Z,62.40
2022-09-12T03:47:38.086Z,63.32
2022-09-12T03:50:07.277Z,62.82
2022-09-12T03:52:35.283Z,62.57
2022-09-12T03:55:05.118Z,62.69
2022-09-12T03:57:33.126Z,62.26
2022-09-12T04:00:02.016Z,62.61
2022-09-12T04:02:40.565Z,62.33
2022-09-12T04:05:09.100Z,62.41
2022-09-12T04:07:37.157Z,62.16
2022-09-12T04:10:07.521Z,62.85
2022-09-12T04:12:35.915Z,62.06
2022-09-12T04:15:04.021Z,62.42
2022-09-12T04:17:32.018Z,62.88
2022-09-12T04:20:00.097Z,63.58
2022-09-12T04:22:29.893Z,62.87
2022-09-12T04:24:57.859Z,62.61
2022-09-12T04:27:27.400Z,61.82
2022-09-12T04:29:59.139Z,62.38
2022-09-12T04:32:27.230Z,62.74
2022-09-12T04:34:55.210Z,62.46
2022-09-12T04:37:24.244Z,62.61
2022-09-12T04:39:56.040Z,63.17
2022-09-12T04:42:26.559Z,63.45
2022-09-12T04:44:55.983Z,62.53
2022-09-12T04:47:24.158Z,62.95
2022-09-12T04:49:52.491Z,62.61
2022-09-12T04:52:20.928Z,62.89
2022-09-12T04:54:48.888Z,63.21
2022-09-12T04:57:16.933Z,62.45
2022-09-12T04:59:47.807Z,62.46
2022-09-12T05:02:17.263Z,62.41
2022-09-12T05:04:46.899Z,62.13
2022-09-12T05:07:15.001Z,61.89
2022-09-12T05:09:43.744Z,62.10
2022-09-12T05:12:11.715Z,62.22
2022-09-12T05:14:40.587Z,61.96
2022-09-12T05:17:08.945Z,62.55
2022-09-12T05:19:39.171Z,62.43
2022-09-12T05:22:07.161Z,62.07
2022-09-12T05:24:35.184Z,61.52
2022-09-12T05:27:04.757Z,62.11
2022-09-12T05:29:32.859Z,62.23
2022-09-12T05:32:00.880Z,62.53
2022-09-12T05:34:28.971Z,62.98
2022-09-12T05:36:58.307Z,62.77
2022-09-12T05:39:27.807Z,62.50
2022-09-12T05:41:56.402Z,63.50
2022-09-12T05:44:24.920Z,62.55
2022-09-12T05:46:53.671Z,62.42
2022-09-12T05:49:22.629Z,62.44
2022-09-12T05:51:51.636Z,61.96
2022-09-12T05:54:21.335Z,62.01
2022-09-12T05:56:50.032Z,61.98
2022-09-12T05:59:22.041Z,61.96
2022-09-12T06:01:50.683Z,63.16
2022-09-12T06:04:18.795Z,62.19
2022-09-12T06:06:48.694Z,62.67
2022-09-12T06:09:17.932Z,62.29
2022-09-12T06:11:47.750Z,62.29
2022-09-12T06:14:17.584Z,62.13
2022-09-12T06:16:45.574Z,62.54
2022-09-12T06:19:16.172Z,62.14
2022-09-12T06:21:44.737Z,62.86
2022-09-12T06:24:12.886Z,62.76
2022-09-12T06:26:40.992Z,62.64
2022-09-12T06:29:13.383Z,63.52
2022-09-12T06:31:43.175Z,63.01
2022-09-12T06:34:15.149Z,62.85
2022-09-12T06:36:45.399Z,63.01
2022-09-12T06:39:16.207Z,62.80
2022-09-12T06:41:44.645Z,63.41
2022-09-12T06:44:16.760Z,62.99
2022-09-12T06:46:45.334Z,63.05
2022-09-12T06:49:13.790Z,63.00
2022-09-12T06:51:43.308Z,62.44
2022-09-12T06:54:13.935Z,63.27
2022-09-12T06:56:42.217Z,64.51
2022-09-12T06:59:10.312Z,63.49
2022-09-12T07:01:42.480Z,63.77
2022-09-12T07:04:11.745Z,63.58
2022-09-12T07:06:41.840Z,64.29
2022-09-12T07:09:12.743Z,64.41
2022-09-12T07:11:42.872Z,63.47
2022-09-12T07:14:14.064Z,63.05
2022-09-12T07:16:43.741Z,63.44
2022-09-12T07:19:12.140Z,63.50
2022-09-12T07:21:41.012Z,63.27
2022-09-12T07:24:10.963Z,63.39
2022-09-12T07:26:40.500Z,64.01
2022-09-12T07:29:35.470Z,63.85
2022-09-12T07:32:01.339Z,63.01
2022-09-12T07:34:29.316Z,63.63
2022-09-12T07:36:57.256Z,63.10
2022-09-12T07:39:25.275Z,63.66
2022-09-12T07:41:55.511Z,64.42
2022-09-12T07:44:23.611Z,64.76
2022-09-12T07:46:52.335Z,64.02
2022-09-12T07:49:21.669Z,63.32
2022-09-12T07:51:49.854Z,64.00
2022-09-12T07:54:17.898Z,64.10
2022-09-12T07:56:45.879Z,64.38
2022-09-12T07:59:18.922Z,63.21
2022-09-12T08:01:58.241Z,63.16
2022-09-12T08:04:27.676Z,63.87
2022-09-12T08:06:55.662Z,64.04
2022-09-12T08:09:26.703Z,63.60
2022-09-12T08:11:54.728Z,63.96
2022-09-12T08:14:22.693Z,63.75
2022-09-12T08:16:50.708Z,62.83
2022-09-12T08:19:18.649Z,63.40
2022-09-12T08:21:48.060Z,64.05
2022-09-12T08:24:16.109Z,64.40
2022-09-12T08:26:44.147Z,62.60
2022-09-12T08:29:12.545Z,62.85
2022-09-12T08:31:42.499Z,62.40
2022-09-12T08:34:10.791Z,62.22
2022-09-12T08:36:38.798Z,62.13
2022-09-12T08:39:08.981Z,62.00
2022-09-12T08:41:40.762Z,62.28
2022-09-12T08:44:29.213Z,61.48
2022-09-12T08:47:23.556Z,61.63
2022-09-12T08:50:03.607Z,61.46
2022-09-12T08:52:39.369Z,61.68
2022-09-12T08:55:24.740Z,60.29
2022-09-12T08:57:54.536Z,61.44
2022-09-12T09:00:23.233Z,61.20
2022-09-12T09:03:11.599Z,62.62
2022-09-12T09:05:50.101Z,61.67
2022-09-12T09:08:45.487Z,61.07
2022-09-12T09:11:27.304Z,61.19
2022-09-12T09:14:22.255Z,61.51
2022-09-12T09:16:53.295Z,60.99
2022-09-12T09:19:25.698Z,62.17
2022-09-12T09:21:59.885Z,60.99
2022-09-12T09:24:34.417Z,60.86
2022-09-12T09:27:23.495Z,61.03
2022-09-12T09:29:57.118Z,60.90
2022-09-12T09:32:29.281Z,60.22
2022-09-12T09:34:57.505Z,60.30
2022-09-12T09:37:36.541Z,60.00
2022-09-12T09:40:15.680Z,60.96
2022-09-12T09:42:53.986Z,60.72
2022-09-12T09:45:25.172Z,60.49
2022-09-12T09:47:58.408Z,61.37
2022-09-12T09:50:26.537Z,60.79
2022-09-12T09:52:57.003Z,60.31
2022-09-12T09:55:31.496Z,59.73
2022-09-12T09:58:00.848Z,61.02
2022-09-12T10:00:34.087Z,60.14
2022-09-12T10:05:50.611Z,59.90
2022-09-12T10:08:24.034Z,60.01
2022-09-12T10:10:57.435Z,60.36
2022-09-12T10:13:34.143Z,59.40
2022-09-12T10:16:04.138Z,59.90
2022-09-12T10:18:42.234Z,59.87
2022-09-12T10:21:21.212Z,59.39
2022-09-12T10:23:53.972Z,58.81
2022-09-12T10:26:22.777Z,58.83
2022-09-12T10:28:54.572Z,60.20
2022-09-12T10:31:29.180Z,60.28
2022-09-12T10:34:00.932Z,60.07
2022-09-12T10:36:38.516Z,59.71
2022-09-12T10:39:07.965Z,59.59
2022-09-12T10:41:39.315Z,59.90
2022-09-12T10:44:15.875Z,60.08
2022-09-12T10:46:43.965Z,60.02
2022-09-12T10:49:25.272Z,59.69
2022-09-12T10:51:54.993Z,59.89
2022-09-12T10:54:26.073Z,60.74
2022-09-12T10:57:09.562Z,59.99
2022-09-12T11:00:05.264Z,59.26
2022-09-12T11:02:44.389Z,59.13
2022-09-12T11:05:22.825Z,58.82
2022-09-12T11:07:57.515Z,58.91
2022-09-12T11:10:43.769Z,58.10
2022-09-12T11:13:31.189Z,58.02
2022-09-12T11:16:22.969Z,58.28
2022-09-12T11:19:23.516Z,56.96
2022-09-12T11:22:11.752Z,57.85
2022-09-12T11:25:00.198Z,57.20
2022-09-12T11:27:48.513Z,58.26
2022-09-12T11:30:18.749Z,58.71
2022-09-12T11:33:10.399Z,58.64
2022-09-12T11:35:51.864Z,59.10
2022-09-12T11:38:50.851Z,58.56
2022-09-12T11:41:24.693Z,58.81
2022-09-12T11:43:59.554Z,57.87
2022-09-12T11:46:36.205Z,57.74
2022-09-12T11:49:28.491Z,57.85
2022-09-12T11:52:01.517Z,57.42
2022-09-12T11:54:36.186Z,58.02
2022-09-12T11:57:12.457Z,57.57
2022-09-12T11:59:47.427Z,58.12
2022-09-12T12:02:23.238Z,58.41
2022-09-12T12:05:04.914Z,58.12
2022-09-12T12:07:45.603Z,60.01
2022-09-12T12:10:26.307Z,59.10
2022-09-12T12:12:56.396Z,59.01
2022-09-12T12:15:26.988Z,59.28
2022-09-12T12:18:03.699Z,58.10
2022-09-12T12:20:33.536Z,59.57
2022-09-12T12:23:02.071Z,59.30
2022-09-12T12:25:42.957Z,58.35
2022-09-12T12:28:10.988Z,58.80
2022-09-12T12:31:03.676Z,59.34
2022-09-12T12:34:02.090Z,59.44
2022-09-12T12:36:38.516Z,61.23
2022-09-12T12:39:45.877Z,61.72
2022-09-12T12:42:50.537Z,60.47
2022-09-12T12:46:01.594Z,60.20
2022-09-12T12:48:45.431Z,61.08
2022-09-12T12:51:27.345Z,60.29
2022-09-12T12:53:57.057Z,61.06
2022-09-12T12:56:30.731Z,60.90
2022-09-12T12:59:02.361Z,61.22
2022-09-12T13:01:31.846Z,61.10
2022-09-12T13:04:03.788Z,61.17
2022-09-12T13:06:35.386Z,61.95
2022-09-12T13:09:08.771Z,61.74
2022-09-12T13:11:39.581Z,60.62
2022-09-12T13:14:28.413Z,60.68
2022-09-12T13:17:00.159Z,61.18
2022-09-12T13:19:31.936Z,60.48
2022-09-12T13:22:02.795Z,61.10
2022-09-12T13:24:32.298Z,61.96
2022-09-12T13:27:00.351Z,61.80
2022-09-12T13:29:29.336Z,61.90
2022-09-12T13:31:59.391Z,62.96
2022-09-12T13:34:30.412Z,61.74
2022-09-12T13:37:22.156Z,61.35
2022-09-12T13:40:00.902Z,62.05
2022-09-12T13:42:42.652Z,63.04
2022-09-12T13:45:15.510Z,63.58
2022-09-12T13:47:45.636Z,63.38
2022-09-12T13:50:19.057Z,62.89
2022-09-12T13:52:51.637Z,63.79
2022-09-12T13:55:33.770Z,63.82
2022-09-12T13:58:03.463Z,63.15
2022-09-12T14:00:33.229Z,62.80
2022-09-12T14:03:19.730Z,64.14
2022-09-12T14:05:57.897Z,63.08
2022-09-12T14:08:27.009Z,63.20
2022-09-12T14:10:56.432Z,62.84
2022-09-12T14:13:28.248Z,65.23
2022-09-12T14:15:57.515Z,65.13
2022-09-12T14:18:28.547Z,64.10
2022-09-12T14:21:00.908Z,62.97
2022-09-12T14:23:31.164Z,63.48
2022-09-12T14:26:05.061Z,64.02
2022-09-12T14:28:34.403Z,63.66
2022-09-12T14:31:05.861Z,63.77
2022-09-12T14:33:46.935Z,63.59
2022-09-12T14:36:22.791Z,65.65
2022-09-12T14:38:53.451Z,64.08
2022-09-12T14:41:30.815Z,63.95
2022-09-12T14:44:01.655Z,63.74
2022-09-12T14:46:34.565Z,63.62
2022-09-12T14:49:09.191Z,63.93
2022-09-12T14:51:40.576Z,62.84
2022-09-12T14:54:37.253Z,63.08
2022-09-12T14:57:32.259Z,65.05
2022-09-12T15:00:17.857Z,63.15
2022-09-12T15:02:45.989Z,65.22
2022-09-12T15:05:23.766Z,63.65
2022-09-12T15:07:57.882Z,63.97
2022-09-12T15:10:31.086Z,63.13
2022-09-12T15:13:21.935Z,62.90
2022-09-12T15:15:52.189Z,64.66
2022-09-12T15:18:21.385Z,64.17
2022-09-12T15:20:52.166Z,63.68
2022-09-12T15:23:28.268Z,62.82
2022-09-12T15:25:56.638Z,65.50
2022-09-12T15:28:26.893Z,63.61
2022-09-12T15:30:57.767Z,63.57
2022-09-12T15:33:26.583Z,64.67
2022-09-12T15:35:54.589Z,64.94
2022-09-12T15:38:26.382Z,65.96
2022-09-12T15:41:01.097Z,64.53
2022-09-12T15:43:31.745Z,64.37
2022-09-12T15:46:07.081Z,64.37
2022-09-12T15:48:37.016Z,64.59
2022-09-12T15:51:07.720Z,64.11
2022-09-12T15:53:35.918Z,63.99
2022-09-12T15:56:06.663Z,63.50
2022-09-12T15:58:36.432Z,63.57
2022-09-12T16:01:05.521Z,63.34
2022-09-12T16:03:33.535Z,63.66
2022-09-12T16:06:03.583Z,63.68
2022-09-12T16:08:33.004Z,63.40
2022-09-12T16:11:05.770Z,63.32
2022-09-12T16:13:35.811Z,63.98
2022-09-12T16:16:09.039Z,63.96
2022-09-12T16:18:37.368Z,63.67
2022-09-12T16:21:11.324Z,64.07
2022-09-12T16:23:43.671Z,63.32
2022-09-12T16:26:11.866Z,63.89
2022-09-12T16:28:41.576Z,64.26
2022-09-12T16:31:13.803Z,64.26
2022-09-12T16:33:42.281Z,64.44
2022-09-12T16:36:12.143Z,64.82
2022-09-12T16:38:42.832Z,64.90
2022-09-12T16:41:11.701Z,64.44
2022-09-12T16:43:39.967Z,64.90
2022-09-12T16:46:11.436Z,65.04
2022-09-12T16:48:44.429Z,65.02
2022-09-12T16:51:14.630Z,66.02
2022-09-12T16:53:43.112Z,65.40
2022-09-12T16:56:11.291Z,66.37
2022-09-12T16:58:48.199Z,65.67
2022-09-12T17:01:20.180Z,65.94
2022-09-12T17:03:48.721Z,66.37
2022-09-12T17:06:18.966Z,66.44
2022-09-12T17:08:48.846Z,66.26
2022-09-12T17:11:19.329Z,66.19
2022-09-12T17:14:07.879Z,65.66
2022-09-12T17:16:39.539Z,67.19
2022-09-12T17:19:08.660Z,65.33
2022-09-12T17:21:36.643Z,66.18
2022-09-12T17:24:12.375Z,66.63
2022-09-12T17:26:40.666Z,66.54
2022-09-12T17:29:14.737Z,67.83
2022-09-12T17:31:48.153Z,66.56
2022-09-12T17:34:17.592Z,68.21
2022-09-12T17:36:46.221Z,67.97
2022-09-12T17:39:14.752Z,66.56
2022-09-12T17:41:43.225Z,67.30
2022-09-12T17:44:12.900Z,66.82
2022-09-12T17:46:41.588Z,66.89
2022-09-12T17:49:14.839Z,66.30
2022-09-12T17:51:43.740Z,65.86
2022-09-12T17:54:14.152Z,67.78
2022-09-12T17:56:43.524Z,66.98
2022-09-12T17:59:15.823Z,66.43
2022-09-12T18:02:01.846Z,65.96
2022-09-12T18:04:31.312Z,66.35
2022-09-12T18:07:00.440Z,66.83
2022-09-12T18:09:29.160Z,67.20
2022-09-12T18:11:57.602Z,66.41
2022-09-12T18:14:26.276Z,66.88
2022-09-12T18:17:01.794Z,66.22
2022-09-12T18:19:32.134Z,66.15
2022-09-12T18:22:00.111Z,66.38
2022-09-12T18:24:28.699Z,65.73
2022-09-12T18:26:57.590Z,67.38
2022-09-12T18:29:27.693Z,66.06
2022-09-12T18:31:55.701Z,65.61
2022-09-12T18:34:23.749Z,66.29
2022-09-12T18:36:54.946Z,67.01
2022-09-12T18:39:27.317Z,66.75
2022-09-12T18:41:56.358Z,65.75
2022-09-12T18:44:24.326Z,66.06
2022-09-12T18:46:52.848Z,66.31
2022-09-12T18:49:21.092Z,66.93
2022-09-12T18:51:49.117Z,66.45
2022-09-12T18:54:18.812Z,65.09
2022-09-12T18:56:47.639Z,64.92
2022-09-12T18:59:15.742Z,67.06
2022-09-12T19:01:44.272Z,68.44
2022-09-12T19:04:13.637Z,67.38
2022-09-12T19:06:43.781Z,67.68
2022-09-12T19:09:13.148Z,65.48
2022-09-12T19:11:48.816Z,67.73
2022-09-12T19:14:17.719Z,66.94
2022-09-12T19:16:46.266Z,68.06
2022-09-12T19:19:14.218Z,67.90
2022-09-12T19:21:42.876Z,67.85
2022-09-12T19:24:11.412Z,67.92
2022-09-12T19:26:40.176Z,67.76
2022-09-12T19:29:10.232Z,66.89
2022-09-12T19:31:38.371Z,66.03
2022-09-12T19:34:09.337Z,67.88
2022-09-12T19:36:45.489Z,66.28
2022-09-12T19:39:15.311Z,66.32
2022-09-12T19:41:43.857Z,67.19
2022-09-12T19:44:13.277Z,66.49
2022-09-12T19:46:41.751Z,66.66
2022-09-12T19:49:11.973Z,66.12
2022-09-12T19:51:43.922Z,66.20
2022-09-12T19:54:15.714Z,65.56
2022-09-12T19:56:43.800Z,66.25
2022-09-12T19:59:13.278Z,65.73
2022-09-12T20:01:41.474Z,66.44
2022-09-12T20:04:13.748Z,67.57
2022-09-12T20:06:41.781Z,67.26
2022-09-12T20:09:09.772Z,67.83
2022-09-12T20:11:38.161Z,67.27
2022-09-12T20:14:06.208Z,67.31
2022-09-12T20:16:35.600Z,66.56
2022-09-12T20:19:08.333Z,67.40
2022-09-12T20:21:37.771Z,66.99
2022-09-12T20:24:07.658Z,66.65
2022-09-12T20:26:35.995Z,66.60
2022-09-12T20:29:04.785Z,67.04
2022-09-12T20:31:33.472Z,67.67
2022-09-12T20:34:02.986Z,67.18
2022-09-12T20:36:31.009Z,67.40
2022-09-12T20:39:01.283Z,66.31
2022-09-12T20:41:31.614Z,66.52
2022-09-12T20:43:59.925Z,65.89
2022-09-12T20:46:29.272Z,65.72
2022-09-12T20:48:58.470Z,66.00
2022-09-12T20:51:41.928Z,66.07
2022-09-12T20:54:11.334Z,66.95
2022-09-12T20:56:39.385Z,66.10
2022-09-12T20:59:07.633Z,66.09
2022-09-12T21:01:35.718Z,67.08
2022-09-12T21:04:04.487Z,65.36
2022-09-12T21:06:34.063Z,66.53
2022-09-12T21:09:02.059Z,66.71
2022-09-12T21:11:30.352Z,66.30
2022-09-12T21:13:58.965Z,66.70
2022-09-12T21:16:27.322Z,66.75
2022-09-12T21:18:58.844Z,66.94
2022-09-12T21:21:27.562Z,66.45
2022-09-12T21:23:59.911Z,66.38
2022-09-12T21:26:28.339Z,66.55
2022-09-12T21:28:56.409Z,66.77
2022-09-12T21:31:25.412Z,66.86
2022-09-12T21:33:53.453Z,67.30
2022-09-12T21:36:21.552Z,65.96
2022-09-12T21:38:49.524Z,65.51
2022-09-12T21:41:19.463Z,66.02
2022-09-12T21:43:47.508Z,66.29
2022-09-12T21:46:15.567Z,66.46
2022-09-12T21:48:43.987Z,66.90
2022-09-12T21:51:11.926Z,66.67
2022-09-12T21:53:39.948Z,66.52
2022-09-12T21:56:09.920Z,67.27
2022-09-12T21:58:39.432Z,66.87
2022-09-12T22:01:09.576Z,66.68
2022-09-12T22:03:37.830Z,66.19
2022-09-12T22:06:07.816Z,67.37
2022-09-12T22:08:37.593Z,67.25
2022-09-12T22:11:09.496Z,66.95
2022-09-12T22:13:42.707Z,69.10
2022-09-12T22:16:11.619Z,69.42
2022-09-12T22:18:40.110Z,67.33
2022-09-12T22:21:12.337Z,67.23
2022-09-12T22:23:58.344Z,69.14
2022-09-12T22:26:27.054Z,68.28
2022-09-12T22:28:57.138Z,68.12
2022-09-12T22:31:27.019Z,68.21
2022-09-12T22:33:57.102Z,66.94
2022-09-12T22:36:30.514Z,66.76
2022-09-12T22:38:59.527Z,67.53
2022-09-12T22:41:27.497Z,68.40
2022-09-12T22:43:57.596Z,67.92
2022-09-12T22:46:28.149Z,67.79
2022-09-12T22:48:56.659Z,68.41
2022-09-12T22:51:24.673Z,68.88
2022-09-12T22:53:53.039Z,67.50
2022-09-12T22:56:21.159Z,66.88
2022-09-12T22:58:49.423Z,68.18
2022-09-12T23:01:19.046Z,66.88
2022-09-12T23:03:47.140Z,67.23
2022-09-12T23:06:15.241Z,67.88
2022-09-12T23:08:43.630Z,67.53
2022-09-12T23:11:13.984Z,68.03
2022-09-12T23:13:43.983Z,67.99
2022-09-12T23:16:17.088Z,66.91
2022-09-12T23:18:47.006Z,67.54
2022-09-12T23:21:16.668Z,68.21
2022-09-12T23:23:44.936Z,69.14
2022-09-12T23:26:17.242Z,68.54
2022-09-12T23:28:50.029Z,68.14
2022-09-12T23:31:18.925Z,68.49
2022-09-12T23:33:50.008Z,67.25
2022-09-12T23:36:17.989Z,67.74
2022-09-12T23:38:47.861Z,69.71
2022-09-12T23:41:17.347Z,70.22
2022-09-12T23:43:45.635Z,68.82
2022-09-12T23:46:14.608Z,67.59
2022-09-12T23:48:43.276Z,67.71
2022-09-12T23:51:13.361Z,67.13
2022-09-12T23:53:41.394Z,68.08
2022-09-12T23:56:09.575Z,67.38
2022-09-12T23:58:37.885Z,67.06
